sensor_id;sensor_type;location;lat;lon;timestamp;temperature;humidity
83500;DHT22;73433;50.908;13.746;2024-01-30T00:01:25;-0.60;82.00
83500;DHT22;73433;50.908;13.746;2024-01-30T00:03:52;-0.60;82.00
83500;DHT22;73433;50.908;13.746;2024-01-30T00:06:20;-0.70;82.10
83500;DHT22;73433;50.908;13.746;2024-01-30T00:08:50;-0.70;82.30
83500;DHT22;73433;50.908;13.746;2024-01-30T00:11:18;-0.70;82.40
83500;DHT22;73433;50.908;13.746;2024-01-30T00:13:45;-0.70;82.50
83500;DHT22;73433;50.908;13.746;2024-01-30T00:16:22;-0.70;82.50
83500;DHT22;73433;50.908;13.746;2024-01-30T00:18:54;-0.70;82.50
83500;DHT22;73433;50.908;13.746;2024-01-30T00:21:22;-0.80;82.60
83500;DHT22;73433;50.908;13.746;2024-01-30T00:23:49;-0.70;82.80
83500;DHT22;73433;50.908;13.746;2024-01-30T00:26:16;-0.80;82.70
83500;DHT22;73433;50.908;13.746;2024-01-30T00:28:44;-0.80;82.70
83500;DHT22;73433;50.908;13.746;2024-01-30T00:31:11;-0.80;82.70
83500;DHT22;73433;50.908;13.746;2024-01-30T00:33:40;-0.90;82.70
83500;DHT22;73433;50.908;13.746;2024-01-30T00:36:08;-0.90;82.80
83500;DHT22;73433;50.908;13.746;2024-01-30T00:38:36;-0.90;83.10
83500;DHT22;73433;50.908;13.746;2024-01-30T00:41:04;-0.90;83.10
83500;DHT22;73433;50.908;13.746;2024-01-30T00:43:31;-1.00;83.20
83500;DHT22;73433;50.908;13.746;2024-01-30T00:45:59;-1.00;83.30
83500;DHT22;73433;50.908;13.746;2024-01-30T00:48:26;-1.00;83.40
83500;DHT22;73433;50.908;13.746;2024-01-30T00:50:54;-1.00;83.40
83500;DHT22;73433;50.908;13.746;2024-01-30T00:53:21;-1.10;83.60
83500;DHT22;73433;50.908;13.746;2024-01-30T00:55:48;-1.10;83.90
83500;DHT22;73433;50.908;13.746;2024-01-30T00:58:15;-1.10;84.30
83500;DHT22;73433;50.908;13.746;2024-01-30T01:00:43;-1.10;84.60
83500;DHT22;73433;50.908;13.746;2024-01-30T01:03:10;-1.10;84.60
83500;DHT22;73433;50.908;13.746;2024-01-30T01:05:37;-1.10;84.90
83500;DHT22;73433;50.908;13.746;2024-01-30T01:08:05;-1.10;84.80
83500;DHT22;73433;50.908;13.746;2024-01-30T01:10:32;-1.10;84.60
83500;DHT22;73433;50.908;13.746;2024-01-30T01:12:59;-1.10;84.70
83500;DHT22;73433;50.908;13.746;2024-01-30T01:15:26;-1.00;84.70
83500;DHT22;73433;50.908;13.746;2024-01-30T01:17:56;-1.00;84.60
83500;DHT22;73433;50.908;13.746;2024-01-30T01:20:23;-1.00;84.60
83500;DHT22;73433;50.908;13.746;2024-01-30T01:22:51;-1.10;84.60
83500;DHT22;73433;50.908;13.746;2024-01-30T01:25:19;-1.00;84.70
83500;DHT22;73433;50.908;13.746;2024-01-30T01:27:46;-1.00;84.70
83500;DHT22;73433;50.908;13.746;2024-01-30T01:30:18;-1.10;84.70
83500;DHT22;73433;50.908;13.746;2024-01-30T01:32:49;-1.10;84.90
83500;DHT22;73433;50.908;13.746;2024-01-30T01:35:28;-1.10;85.10
83500;DHT22;73433;50.908;13.746;2024-01-30T01:37:55;-1.10;85.10
83500;DHT22;73433;50.908;13.746;2024-01-30T01:40:24;-1.20;85.10
83500;DHT22;73433;50.908;13.746;2024-01-30T01:42:52;-1.20;85.10
83500;DHT22;73433;50.908;13.746;2024-01-30T01:45:20;-1.20;85.20
83500;DHT22;73433;50.908;13.746;2024-01-30T01:47:51;-1.30;85.30
83500;DHT22;73433;50.908;13.746;2024-01-30T01:50:18;-1.30;85.50
83500;DHT22;73433;50.908;13.746;2024-01-30T01:52:50;-1.30;85.90
83500;DHT22;73433;50.908;13.746;2024-01-30T01:55:20;-1.30;86.10
83500;DHT22;73433;50.908;13.746;2024-01-30T01:57:53;-1.30;86.10
83500;DHT22;73433;50.908;13.746;2024-01-30T02:00:21;-1.30;86.00
83500;DHT22;73433;50.908;13.746;2024-01-30T02:02:49;-1.30;86.00
83500;DHT22;73433;50.908;13.746;2024-01-30T02:05:17;-1.30;86.00
83500;DHT22;73433;50.908;13.746;2024-01-30T02:07:45;-1.30;86.10
83500;DHT22;73433;50.908;13.746;2024-01-30T02:10:12;-1.30;86.20
83500;DHT22;73433;50.908;13.746;2024-01-30T02:12:40;-1.30;86.30
83500;DHT22;73433;50.908;13.746;2024-01-30T02:15:07;-1.30;86.30
83500;DHT22;73433;50.908;13.746;2024-01-30T02:17:35;-1.20;86.50
83500;DHT22;73433;50.908;13.746;2024-01-30T02:20:02;-1.20;86.30
83500;DHT22;73433;50.908;13.746;2024-01-30T02:22:32;-1.20;86.20
83500;DHT22;73433;50.908;13.746;2024-01-30T02:25:00;-1.30;86.30
83500;DHT22;73433;50.908;13.746;2024-01-30T02:27:28;-1.20;86.60
83500;DHT22;73433;50.908;13.746;2024-01-30T02:29:55;-1.20;87.60
83500;DHT22;73433;50.908;13.746;2024-01-30T02:32:22;-1.20;86.80
83500;DHT22;73433;50.908;13.746;2024-01-30T02:34:49;-1.20;86.70
83500;DHT22;73433;50.908;13.746;2024-01-30T02:37:17;-1.20;86.50
83500;DHT22;73433;50.908;13.746;2024-01-30T02:39:44;-1.20;86.50
83500;DHT22;73433;50.908;13.746;2024-01-30T02:42:12;-1.20;86.40
83500;DHT22;73433;50.908;13.746;2024-01-30T02:44:39;-1.30;87.30
83500;DHT22;73433;50.908;13.746;2024-01-30T02:47:06;-1.30;86.60
83500;DHT22;73433;50.908;13.746;2024-01-30T02:49:33;-1.20;86.80
83500;DHT22;73433;50.908;13.746;2024-01-30T02:52:01;-1.20;87.00
83500;DHT22;73433;50.908;13.746;2024-01-30T02:54:28;-1.20;86.90
83500;DHT22;73433;50.908;13.746;2024-01-30T02:56:57;-1.20;86.70
83500;DHT22;73433;50.908;13.746;2024-01-30T02:59:25;-1.20;86.70
83500;DHT22;73433;50.908;13.746;2024-01-30T03:01:52;-1.20;86.70
83500;DHT22;73433;50.908;13.746;2024-01-30T03:04:19;-1.20;86.60
83500;DHT22;73433;50.908;13.746;2024-01-30T03:06:47;-1.20;86.60
83500;DHT22;73433;50.908;13.746;2024-01-30T03:09:16;-1.20;86.50
83500;DHT22;73433;50.908;13.746;2024-01-30T03:11:44;-1.20;86.50
83500;DHT22;73433;50.908;13.746;2024-01-30T03:14:12;-1.20;86.60
83500;DHT22;73433;50.908;13.746;2024-01-30T03:16:39;-1.30;86.50
83500;DHT22;73433;50.908;13.746;2024-01-30T03:19:07;-1.30;86.50
83500;DHT22;73433;50.908;13.746;2024-01-30T03:21:37;-1.30;87.40
83500;DHT22;73433;50.908;13.746;2024-01-30T03:24:05;-1.30;86.60
83500;DHT22;73433;50.908;13.746;2024-01-30T03:26:32;-1.30;87.00
83500;DHT22;73433;50.908;13.746;2024-01-30T03:28:59;-1.30;87.10
83500;DHT22;73433;50.908;13.746;2024-01-30T03:31:26;-1.30;87.00
83500;DHT22;73433;50.908;13.746;2024-01-30T03:33:54;-1.40;87.00
83500;DHT22;73433;50.908;13.746;2024-01-30T03:36:21;-1.40;87.10
83500;DHT22;73433;50.908;13.746;2024-01-30T03:38:48;-1.30;87.40
83500;DHT22;73433;50.908;13.746;2024-01-30T03:41:16;-1.30;87.50
83500;DHT22;73433;50.908;13.746;2024-01-30T03:43:43;-1.30;87.60
83500;DHT22;73433;50.908;13.746;2024-01-30T03:46:12;-1.40;87.50
83500;DHT22;73433;50.908;13.746;2024-01-30T03:48:39;-1.30;87.60
83500;DHT22;73433;50.908;13.746;2024-01-30T03:51:07;-1.30;87.60
83500;DHT22;73433;50.908;13.746;2024-01-30T03:53:34;-1.30;87.60
83500;DHT22;73433;50.908;13.746;2024-01-30T03:56:01;-1.30;87.70
83500;DHT22;73433;50.908;13.746;2024-01-30T03:58:28;-1.30;87.70
83500;DHT22;73433;50.908;13.746;2024-01-30T04:00:55;-1.30;87.60
83500;DHT22;73433;50.908;13.746;2024-01-30T04:03:22;-1.30;87.70
83500;DHT22;73433;50.908;13.746;2024-01-30T04:05:50;-1.30;87.80
83500;DHT22;73433;50.908;13.746;2024-01-30T04:08:18;-1.30;87.90
83500;DHT22;73433;50.908;13.746;2024-01-30T04:10:45;-1.30;87.80
83500;DHT22;73433;50.908;13.746;2024-01-30T04:13:13;-1.30;87.90
83500;DHT22;73433;50.908;13.746;2024-01-30T04:15:40;-1.30;87.90
83500;DHT22;73433;50.908;13.746;2024-01-30T04:18:07;-1.30;88.10
83500;DHT22;73433;50.908;13.746;2024-01-30T04:20:35;-1.30;88.10
83500;DHT22;73433;50.908;13.746;2024-01-30T04:23:02;-1.20;88.10
83500;DHT22;73433;50.908;13.746;2024-01-30T04:25:29;-1.20;88.30
83500;DHT22;73433;50.908;13.746;2024-01-30T04:27:56;-1.20;87.90
83500;DHT22;73433;50.908;13.746;2024-01-30T04:30:23;-1.20;87.90
83500;DHT22;73433;50.908;13.746;2024-01-30T04:32:50;-1.20;87.90
83500;DHT22;73433;50.908;13.746;2024-01-30T04:35:17;-1.20;87.90
83500;DHT22;73433;50.908;13.746;2024-01-30T04:37:47;-1.30;87.90
83500;DHT22;73433;50.908;13.746;2024-01-30T04:40:14;-1.30;88.00
83500;DHT22;73433;50.908;13.746;2024-01-30T04:42:41;-1.30;88.10
83500;DHT22;73433;50.908;13.746;2024-01-30T04:45:09;-1.20;88.10
83500;DHT22;73433;50.908;13.746;2024-01-30T04:47:36;-1.30;87.90
83500;DHT22;73433;50.908;13.746;2024-01-30T04:50:03;-1.20;87.90
83500;DHT22;73433;50.908;13.746;2024-01-30T04:52:32;-1.20;87.90
83500;DHT22;73433;50.908;13.746;2024-01-30T04:54:59;-1.30;87.90
83500;DHT22;73433;50.908;13.746;2024-01-30T04:57:26;-1.30;87.90
83500;DHT22;73433;50.908;13.746;2024-01-30T04:59:53;-1.30;88.00
83500;DHT22;73433;50.908;13.746;2024-01-30T05:02:21;-1.30;88.10
83500;DHT22;73433;50.908;13.746;2024-01-30T05:04:48;-1.30;88.10
83500;DHT22;73433;50.908;13.746;2024-01-30T05:07:15;-1.30;88.10
83500;DHT22;73433;50.908;13.746;2024-01-30T05:09:43;-1.30;88.20
83500;DHT22;73433;50.908;13.746;2024-01-30T05:12:10;-1.40;88.20
83500;DHT22;73433;50.908;13.746;2024-01-30T05:14:37;-1.40;88.40
83500;DHT22;73433;50.908;13.746;2024-01-30T05:17:04;-1.40;88.20
83500;DHT22;73433;50.908;13.746;2024-01-30T05:19:31;-1.40;88.20
83500;DHT22;73433;50.908;13.746;2024-01-30T05:21:59;-1.40;88.10
83500;DHT22;73433;50.908;13.746;2024-01-30T05:24:26;-1.40;88.00
83500;DHT22;73433;50.908;13.746;2024-01-30T05:26:54;-1.40;88.10
83500;DHT22;73433;50.908;13.746;2024-01-30T05:29:21;-1.40;88.10
83500;DHT22;73433;50.908;13.746;2024-01-30T05:31:49;-1.40;88.20
83500;DHT22;73433;50.908;13.746;2024-01-30T05:34:16;-1.40;88.20
83500;DHT22;73433;50.908;13.746;2024-01-30T05:36:43;-1.50;88.40
83500;DHT22;73433;50.908;13.746;2024-01-30T05:39:10;-1.50;88.50
83500;DHT22;73433;50.908;13.746;2024-01-30T05:41:38;-1.50;88.50
83500;DHT22;73433;50.908;13.746;2024-01-30T05:44:05;-1.50;88.50
83500;DHT22;73433;50.908;13.746;2024-01-30T05:46:33;-1.50;88.60
83500;DHT22;73433;50.908;13.746;2024-01-30T05:49:00;-1.50;88.60
83500;DHT22;73433;50.908;13.746;2024-01-30T05:51:28;-1.50;88.60
83500;DHT22;73433;50.908;13.746;2024-01-30T05:53:55;-1.50;89.60
83500;DHT22;73433;50.908;13.746;2024-01-30T05:56:22;-1.50;88.80
83500;DHT22;73433;50.908;13.746;2024-01-30T05:58:49;-1.60;88.80
83500;DHT22;73433;50.908;13.746;2024-01-30T06:01:17;-1.50;88.90
83500;DHT22;73433;50.908;13.746;2024-01-30T06:03:44;-1.60;89.00
83500;DHT22;73433;50.908;13.746;2024-01-30T06:06:12;-1.60;89.00
83500;DHT22;73433;50.908;13.746;2024-01-30T06:08:39;-1.60;88.90
83500;DHT22;73433;50.908;13.746;2024-01-30T06:11:10;-1.60;89.10
83500;DHT22;73433;50.908;13.746;2024-01-30T06:13:38;-1.60;89.10
83500;DHT22;73433;50.908;13.746;2024-01-30T06:16:09;-1.60;89.20
83500;DHT22;73433;50.908;13.746;2024-01-30T06:18:38;-1.70;89.20
83500;DHT22;73433;50.908;13.746;2024-01-30T06:21:05;-1.70;89.40
83500;DHT22;73433;50.908;13.746;2024-01-30T06:23:35;-1.70;89.30
83500;DHT22;73433;50.908;13.746;2024-01-30T06:26:02;-1.70;89.30
83500;DHT22;73433;50.908;13.746;2024-01-30T06:28:30;-1.70;89.30
83500;DHT22;73433;50.908;13.746;2024-01-30T06:30:57;-1.70;89.40
83500;DHT22;73433;50.908;13.746;2024-01-30T06:33:25;-1.70;89.30
83500;DHT22;73433;50.908;13.746;2024-01-30T06:35:52;-1.70;89.40
83500;DHT22;73433;50.908;13.746;2024-01-30T06:38:19;-1.70;89.30
83500;DHT22;73433;50.908;13.746;2024-01-30T06:40:47;-1.70;89.50
83500;DHT22;73433;50.908;13.746;2024-01-30T06:43:14;-1.70;89.50
83500;DHT22;73433;50.908;13.746;2024-01-30T06:45:41;-1.70;89.50
83500;DHT22;73433;50.908;13.746;2024-01-30T06:48:09;-1.70;89.70
83500;DHT22;73433;50.908;13.746;2024-01-30T06:50:37;-1.70;89.70
83500;DHT22;73433;50.908;13.746;2024-01-30T06:53:04;-1.60;89.80
83500;DHT22;73433;50.908;13.746;2024-01-30T06:55:31;-1.60;89.80
83500;DHT22;73433;50.908;13.746;2024-01-30T06:57:58;-1.60;89.90
83500;DHT22;73433;50.908;13.746;2024-01-30T07:00:26;-1.60;90.00
83500;DHT22;73433;50.908;13.746;2024-01-30T07:02:53;-1.50;90.00
83500;DHT22;73433;50.908;13.746;2024-01-30T07:05:20;-1.50;90.00
83500;DHT22;73433;50.908;13.746;2024-01-30T07:07:49;-1.50;90.10
83500;DHT22;73433;50.908;13.746;2024-01-30T07:10:16;-1.40;90.00
83500;DHT22;73433;50.908;13.746;2024-01-30T07:12:43;-1.30;90.10
83500;DHT22;73433;50.908;13.746;2024-01-30T07:15:10;-1.30;90.10
83500;DHT22;73433;50.908;13.746;2024-01-30T07:17:38;-1.20;90.10
83500;DHT22;73433;50.908;13.746;2024-01-30T07:20:06;-1.20;90.00
83500;DHT22;73433;50.908;13.746;2024-01-30T07:22:34;-1.10;90.10
83500;DHT22;73433;50.908;13.746;2024-01-30T07:25:01;-1.00;90.00
83500;DHT22;73433;50.908;13.746;2024-01-30T07:27:29;-0.90;90.00
83500;DHT22;73433;50.908;13.746;2024-01-30T07:29:56;-0.90;90.00
83500;DHT22;73433;50.908;13.746;2024-01-30T07:32:23;-0.80;89.70
83500;DHT22;73433;50.908;13.746;2024-01-30T07:34:50;-0.70;89.80
83500;DHT22;73433;50.908;13.746;2024-01-30T07:37:33;-0.50;90.30
83500;DHT22;73433;50.908;13.746;2024-01-30T07:40:01;-0.30;90.80
83500;DHT22;73433;50.908;13.746;2024-01-30T07:42:29;-0.10;90.10
83500;DHT22;73433;50.908;13.746;2024-01-30T07:44:56;0.30;90.40
83500;DHT22;73433;50.908;13.746;2024-01-30T07:47:23;0.80;90.90
83500;DHT22;73433;50.908;13.746;2024-01-30T07:49:50;1.30;89.80
83500;DHT22;73433;50.908;13.746;2024-01-30T07:52:18;1.80;88.60
83500;DHT22;73433;50.908;13.746;2024-01-30T07:54:46;2.30;87.00
83500;DHT22;73433;50.908;13.746;2024-01-30T07:57:13;2.80;85.60
83500;DHT22;73433;50.908;13.746;2024-01-30T07:59:42;3.30;84.50
83500;DHT22;73433;50.908;13.746;2024-01-30T08:02:12;3.80;82.90
83500;DHT22;73433;50.908;13.746;2024-01-30T08:04:40;4.30;81.10
83500;DHT22;73433;50.908;13.746;2024-01-30T08:07:07;4.60;78.90
83500;DHT22;73433;50.908;13.746;2024-01-30T08:09:35;4.80;77.30
83500;DHT22;73433;50.908;13.746;2024-01-30T08:12:02;5.00;76.50
83500;DHT22;73433;50.908;13.746;2024-01-30T08:14:30;5.30;75.70
83500;DHT22;73433;50.908;13.746;2024-01-30T08:16:57;5.60;74.80
83500;DHT22;73433;50.908;13.746;2024-01-30T08:19:24;5.90;74.10
83500;DHT22;73433;50.908;13.746;2024-01-30T08:21:52;6.30;72.70
83500;DHT22;73433;50.908;13.746;2024-01-30T08:24:19;6.70;71.60
83500;DHT22;73433;50.908;13.746;2024-01-30T08:26:46;7.00;70.30
83500;DHT22;73433;50.908;13.746;2024-01-30T08:29:13;7.40;69.80
83500;DHT22;73433;50.908;13.746;2024-01-30T08:31:42;7.90;68.60
83500;DHT22;73433;50.908;13.746;2024-01-30T08:34:11;8.50;66.80
83500;DHT22;73433;50.908;13.746;2024-01-30T08:36:38;9.20;64.40
83500;DHT22;73433;50.908;13.746;2024-01-30T08:39:06;9.70;62.20
83500;DHT22;73433;50.908;13.746;2024-01-30T08:41:33;10.10;60.50
83500;DHT22;73433;50.908;13.746;2024-01-30T08:44:01;10.50;59.00
83500;DHT22;73433;50.908;13.746;2024-01-30T08:46:28;10.80;57.20
83500;DHT22;73433;50.908;13.746;2024-01-30T08:48:55;11.00;56.70
83500;DHT22;73433;50.908;13.746;2024-01-30T08:51:22;11.10;55.10
83500;DHT22;73433;50.908;13.746;2024-01-30T08:53:50;11.30;54.10
83500;DHT22;73433;50.908;13.746;2024-01-30T08:56:17;11.30;53.30
83500;DHT22;73433;50.908;13.746;2024-01-30T08:58:44;11.40;52.70
83500;DHT22;73433;50.908;13.746;2024-01-30T09:01:12;11.40;51.80
83500;DHT22;73433;50.908;13.746;2024-01-30T09:03:39;11.40;51.10
83500;DHT22;73433;50.908;13.746;2024-01-30T09:06:09;11.30;50.40
83500;DHT22;73433;50.908;13.746;2024-01-30T09:08:39;11.40;50.40
83500;DHT22;73433;50.908;13.746;2024-01-30T09:11:13;11.70;50.40
83500;DHT22;73433;50.908;13.746;2024-01-30T09:13:41;12.00;49.70
83500;DHT22;73433;50.908;13.746;2024-01-30T09:16:08;12.40;48.80
83500;DHT22;73433;50.908;13.746;2024-01-30T09:18:36;12.80;48.20
83500;DHT22;73433;50.908;13.746;2024-01-30T09:21:04;13.00;46.40
83500;DHT22;73433;50.908;13.746;2024-01-30T09:23:31;13.00;45.20
83500;DHT22;73433;50.908;13.746;2024-01-30T09:25:58;13.00;46.00
83500;DHT22;73433;50.908;13.746;2024-01-30T09:28:26;13.10;45.40
83500;DHT22;73433;50.908;13.746;2024-01-30T09:30:53;13.30;45.20
83500;DHT22;73433;50.908;13.746;2024-01-30T09:33:21;13.60;44.30
83500;DHT22;73433;50.908;13.746;2024-01-30T09:35:48;13.90;44.50
83500;DHT22;73433;50.908;13.746;2024-01-30T09:38:15;14.20;44.00
83500;DHT22;73433;50.908;13.746;2024-01-30T09:40:43;14.50;43.50
83500;DHT22;73433;50.908;13.746;2024-01-30T09:43:16;14.80;43.00
83500;DHT22;73433;50.908;13.746;2024-01-30T09:45:45;15.20;42.10
83500;DHT22;73433;50.908;13.746;2024-01-30T09:48:13;15.50;40.90
83500;DHT22;73433;50.908;13.746;2024-01-30T09:50:42;15.90;40.00
83500;DHT22;73433;50.908;13.746;2024-01-30T09:53:09;16.10;39.10
83500;DHT22;73433;50.908;13.746;2024-01-30T09:55:38;16.40;38.50
83500;DHT22;73433;50.908;13.746;2024-01-30T09:58:07;16.50;38.10
83500;DHT22;73433;50.908;13.746;2024-01-30T10:00:35;16.70;37.70
83500;DHT22;73433;50.908;13.746;2024-01-30T10:03:02;16.80;37.50
83500;DHT22;73433;50.908;13.746;2024-01-30T10:05:31;16.80;37.50
83500;DHT22;73433;50.908;13.746;2024-01-30T10:08:01;16.90;37.70
83500;DHT22;73433;50.908;13.746;2024-01-30T10:10:32;17.10;37.70
83500;DHT22;73433;50.908;13.746;2024-01-30T10:13:00;17.30;37.60
83500;DHT22;73433;50.908;13.746;2024-01-30T10:15:31;17.40;37.00
83500;DHT22;73433;50.908;13.746;2024-01-30T10:17:58;17.30;36.80
83500;DHT22;73433;50.908;13.746;2024-01-30T10:20:25;17.20;36.40
83500;DHT22;73433;50.908;13.746;2024-01-30T10:22:53;17.20;36.40
83500;DHT22;73433;50.908;13.746;2024-01-30T10:25:21;17.00;36.00
83500;DHT22;73433;50.908;13.746;2024-01-30T10:27:59;16.90;36.20
83500;DHT22;73433;50.908;13.746;2024-01-30T10:30:27;16.80;36.20
83500;DHT22;73433;50.908;13.746;2024-01-30T10:32:55;16.70;35.90
83500;DHT22;73433;50.908;13.746;2024-01-30T10:35:22;16.60;36.50
83500;DHT22;73433;50.908;13.746;2024-01-30T10:37:49;16.80;36.40
83500;DHT22;73433;50.908;13.746;2024-01-30T10:40:16;16.90;36.30
83500;DHT22;73433;50.908;13.746;2024-01-30T10:42:45;17.00;35.90
83500;DHT22;73433;50.908;13.746;2024-01-30T10:45:13;17.10;35.90
83500;DHT22;73433;50.908;13.746;2024-01-30T10:47:50;17.20;35.70
83500;DHT22;73433;50.908;13.746;2024-01-30T10:50:18;17.50;35.70
83500;DHT22;73433;50.908;13.746;2024-01-30T10:52:47;17.70;35.00
83500;DHT22;73433;50.908;13.746;2024-01-30T10:55:16;17.90;34.80
83500;DHT22;73433;50.908;13.746;2024-01-30T10:57:43;18.10;34.30
83500;DHT22;73433;50.908;13.746;2024-01-30T11:00:13;18.10;33.60
83500;DHT22;73433;50.908;13.746;2024-01-30T11:02:46;18.00;33.40
83500;DHT22;73433;50.908;13.746;2024-01-30T11:05:14;17.90;33.40
83500;DHT22;73433;50.908;13.746;2024-01-30T11:07:44;18.00;33.40
83500;DHT22;73433;50.908;13.746;2024-01-30T11:10:12;18.10;33.00
83500;DHT22;73433;50.908;13.746;2024-01-30T11:12:42;18.20;32.70
83500;DHT22;73433;50.908;13.746;2024-01-30T11:15:15;18.30;33.00
83500;DHT22;73433;50.908;13.746;2024-01-30T11:20:29;18.80;32.40
83500;DHT22;73433;50.908;13.746;2024-01-30T11:23:00;19.00;32.30
83500;DHT22;73433;50.908;13.746;2024-01-30T11:25:33;19.30;31.90
83500;DHT22;73433;50.908;13.746;2024-01-30T11:28:02;19.40;31.40
83500;DHT22;73433;50.908;13.746;2024-01-30T11:30:31;19.50;30.80
83500;DHT22;73433;50.908;13.746;2024-01-30T11:35:32;19.40;30.80
83500;DHT22;73433;50.908;13.746;2024-01-30T11:38:01;19.30;30.40
83500;DHT22;73433;50.908;13.746;2024-01-30T11:40:29;19.10;30.30
83500;DHT22;73433;50.908;13.746;2024-01-30T11:42:59;18.90;30.50
83500;DHT22;73433;50.908;13.746;2024-01-30T11:45:27;18.70;30.70
83500;DHT22;73433;50.908;13.746;2024-01-30T11:47:55;18.50;30.50
83500;DHT22;73433;50.908;13.746;2024-01-30T11:50:23;18.30;30.40
83500;DHT22;73433;50.908;13.746;2024-01-30T11:52:51;18.10;30.40
83500;DHT22;73433;50.908;13.746;2024-01-30T11:55:19;17.90;30.50
83500;DHT22;73433;50.908;13.746;2024-01-30T11:57:46;17.70;30.30
83500;DHT22;73433;50.908;13.746;2024-01-30T12:00:15;17.20;29.20
83500;DHT22;73433;50.908;13.746;2024-01-30T12:02:43;16.60;29.30
83500;DHT22;73433;50.908;13.746;2024-01-30T12:05:11;16.10;29.80
83500;DHT22;73433;50.908;13.746;2024-01-30T12:07:38;15.60;30.40
83500;DHT22;73433;50.908;13.746;2024-01-30T12:10:06;15.30;30.90
83500;DHT22;73433;50.908;13.746;2024-01-30T12:12:36;15.10;31.60
83500;DHT22;73433;50.908;13.746;2024-01-30T12:15:04;15.10;32.20
83500;DHT22;73433;50.908;13.746;2024-01-30T12:17:33;14.90;32.40
83500;DHT22;73433;50.908;13.746;2024-01-30T12:20:12;14.80;32.80
83500;DHT22;73433;50.908;13.746;2024-01-30T12:22:41;14.70;33.50
83500;DHT22;73433;50.908;13.746;2024-01-30T12:25:10;14.60;33.80
83500;DHT22;73433;50.908;13.746;2024-01-30T12:27:38;14.40;34.30
83500;DHT22;73433;50.908;13.746;2024-01-30T12:30:10;14.20;34.50
83500;DHT22;73433;50.908;13.746;2024-01-30T12:32:40;14.00;34.50
83500;DHT22;73433;50.908;13.746;2024-01-30T12:35:16;13.70;35.30
83500;DHT22;73433;50.908;13.746;2024-01-30T12:37:45;13.50;35.90
83500;DHT22;73433;50.908;13.746;2024-01-30T12:40:14;13.30;36.30
83500;DHT22;73433;50.908;13.746;2024-01-30T12:42:43;13.20;36.70
83500;DHT22;73433;50.908;13.746;2024-01-30T12:45:13;13.20;36.90
83500;DHT22;73433;50.908;13.746;2024-01-30T12:47:42;13.20;37.40
83500;DHT22;73433;50.908;13.746;2024-01-30T12:50:09;13.20;37.60
83500;DHT22;73433;50.908;13.746;2024-01-30T12:52:37;13.30;37.90
83500;DHT22;73433;50.908;13.746;2024-01-30T12:55:04;13.30;38.30
83500;DHT22;73433;50.908;13.746;2024-01-30T12:57:32;13.30;38.10
83500;DHT22;73433;50.908;13.746;2024-01-30T12:59:59;13.30;38.10
83500;DHT22;73433;50.908;13.746;2024-01-30T13:02:26;13.40;38.30
83500;DHT22;73433;50.908;13.746;2024-01-30T13:04:57;13.50;38.30
83500;DHT22;73433;50.908;13.746;2024-01-30T13:07:24;13.60;38.40
83500;DHT22;73433;50.908;13.746;2024-01-30T13:09:51;13.60;38.70
83500;DHT22;73433;50.908;13.746;2024-01-30T13:12:18;13.70;38.70
83500;DHT22;73433;50.908;13.746;2024-01-30T13:14:45;13.70;38.60
83500;DHT22;73433;50.908;13.746;2024-01-30T13:17:13;13.70;38.60
83500;DHT22;73433;50.908;13.746;2024-01-30T13:19:40;13.60;38.80
83500;DHT22;73433;50.908;13.746;2024-01-30T13:22:07;13.50;39.20
83500;DHT22;73433;50.908;13.746;2024-01-30T13:24:34;13.60;39.70
83500;DHT22;73433;50.908;13.746;2024-01-30T13:27:02;13.70;39.80
83500;DHT22;73433;50.908;13.746;2024-01-30T13:29:32;13.90;39.90
83500;DHT22;73433;50.908;13.746;2024-01-30T13:31:59;14.00;39.50
83500;DHT22;73433;50.908;13.746;2024-01-30T13:34:27;14.10;39.30
83500;DHT22;73433;50.908;13.746;2024-01-30T13:36:54;14.10;39.50
83500;DHT22;73433;50.908;13.746;2024-01-30T13:39:21;14.30;39.30
83500;DHT22;73433;50.908;13.746;2024-01-30T13:41:51;14.40;39.10
83500;DHT22;73433;50.908;13.746;2024-01-30T13:44:18;14.40;38.80
83500;DHT22;73433;50.908;13.746;2024-01-30T13:46:46;14.30;38.50
83500;DHT22;73433;50.908;13.746;2024-01-30T13:49:13;14.20;38.60
83500;DHT22;73433;50.908;13.746;2024-01-30T13:51:41;14.20;39.00
83500;DHT22;73433;50.908;13.746;2024-01-30T13:54:08;14.20;39.10
83500;DHT22;73433;50.908;13.746;2024-01-30T13:56:35;14.10;39.10
83500;DHT22;73433;50.908;13.746;2024-01-30T13:59:03;14.00;39.00
83500;DHT22;73433;50.908;13.746;2024-01-30T14:01:32;13.90;39.30
83500;DHT22;73433;50.908;13.746;2024-01-30T14:04:00;13.80;39.40
83500;DHT22;73433;50.908;13.746;2024-01-30T14:06:27;13.70;39.80
83500;DHT22;73433;50.908;13.746;2024-01-30T14:08:55;13.80;40.00
83500;DHT22;73433;50.908;13.746;2024-01-30T14:11:34;13.80;40.00
83500;DHT22;73433;50.908;13.746;2024-01-30T14:14:01;13.90;40.20
83500;DHT22;73433;50.908;13.746;2024-01-30T14:16:29;13.90;39.80
83500;DHT22;73433;50.908;13.746;2024-01-30T14:18:56;13.80;39.90
83500;DHT22;73433;50.908;13.746;2024-01-30T14:21:23;13.80;40.10
83500;DHT22;73433;50.908;13.746;2024-01-30T14:23:51;13.60;40.30
83500;DHT22;73433;50.908;13.746;2024-01-30T14:26:18;13.50;40.70
83500;DHT22;73433;50.908;13.746;2024-01-30T14:28:45;13.40;41.20
83500;DHT22;73433;50.908;13.746;2024-01-30T14:31:13;13.20;41.50
83500;DHT22;73433;50.908;13.746;2024-01-30T14:33:40;13.00;41.80
83500;DHT22;73433;50.908;13.746;2024-01-30T14:36:08;12.80;42.50
83500;DHT22;73433;50.908;13.746;2024-01-30T14:38:36;12.60;42.80
83500;DHT22;73433;50.908;13.746;2024-01-30T14:41:04;12.40;43.10
83500;DHT22;73433;50.908;13.746;2024-01-30T14:43:31;12.20;43.80
83500;DHT22;73433;50.908;13.746;2024-01-30T14:45:59;12.00;44.40
83500;DHT22;73433;50.908;13.746;2024-01-30T14:48:26;11.80;45.00
83500;DHT22;73433;50.908;13.746;2024-01-30T14:50:53;11.60;45.40
83500;DHT22;73433;50.908;13.746;2024-01-30T14:53:21;11.40;45.80
83500;DHT22;73433;50.908;13.746;2024-01-30T14:55:48;11.20;46.50
83500;DHT22;73433;50.908;13.746;2024-01-30T14:58:15;11.00;46.90
83500;DHT22;73433;50.908;13.746;2024-01-30T15:00:42;10.80;47.50
83500;DHT22;73433;50.908;13.746;2024-01-30T15:03:10;10.60;48.20
83500;DHT22;73433;50.908;13.746;2024-01-30T15:05:37;10.30;48.60
83500;DHT22;73433;50.908;13.746;2024-01-30T15:08:04;10.10;49.00
83500;DHT22;73433;50.908;13.746;2024-01-30T15:10:32;10.00;49.30
83500;DHT22;73433;50.908;13.746;2024-01-30T15:12:59;9.80;49.60
83500;DHT22;73433;50.908;13.746;2024-01-30T15:15:26;9.60;49.80
83500;DHT22;73433;50.908;13.746;2024-01-30T15:17:55;9.50;50.40
83500;DHT22;73433;50.908;13.746;2024-01-30T15:20:23;9.40;51.40
83500;DHT22;73433;50.908;13.746;2024-01-30T15:22:50;9.20;52.20
83500;DHT22;73433;50.908;13.746;2024-01-30T15:25:18;9.00;52.60
83500;DHT22;73433;50.908;13.746;2024-01-30T15:27:45;8.80;53.80